Time;durP1;ratioP1;P1;durP2;ratioP2;P2;SDS_P1;SDS_P2;PMS_P1;PMS_P2;Temp;Humidity;BMP_temperature;BMP_pressure;BME280_temperature;BME280_humidity;BME280_pressure;Samples;Min_cycle;Max_cycle;Signal;HPM_P1;HPM_P2
2024/01/02 00:01:50;;;;;;;10.43;1.63;;;;;;;;;;5114618;28;20232;-76
2024/01/02 00:04:17;;;;;;;10.17;1.97;;;;;;;;;;5114560;28;20566;-76
2024/01/02 00:06:45;;;;;;;10.07;1.97;;;;;;;;;;5114784;28;20262;-76
2024/01/02 00:09:12;;;;;;;9.13;1.70;;;;;;;;;;5114205;28;20289;-76
2024/01/02 00:11:40;;;;;;;8.93;2.00;;;;;;;;;;5114663;28;20611;-77
2024/01/02 00:14:07;;;;;;;10.60;2.10;;;;;;;;;;5114443;28;20189;-76
2024/01/02 00:16:35;;;;;;;6.57;1.77;;;;;;;;;;5114647;28;20313;-76
2024/01/02 00:19:02;;;;;;;7.50;1.87;;;;;;;;;;5114255;28;20289;-76
2024/01/02 00:21:29;;;;;;;6.13;1.30;;;;;;;;;;5114413;28;20228;-77
2024/01/02 00:23:57;;;;;;;7.73;1.40;;;;;;;;;;5114500;28;20284;-76
2024/01/02 00:26:24;;;;;;;8.33;1.30;;;;;;;;;;5114190;28;20297;-77
2024/01/02 00:28:53;;;;;;;6.30;1.80;;;;;;;;;;5114366;28;20268;-77
2024/01/02 00:31:20;;;;;;;5.70;1.37;;;;;;;;;;5114843;28;20289;-77
2024/01/02 00:33:47;;;;;;;8.23;1.33;;;;;;;;;;5113825;28;20664;-76
2024/01/02 00:36:15;;;;;;;4.37;1.20;;;;;;;;;;5113995;28;20198;-76
2024/01/02 00:38:42;;;;;;;6.47;1.17;;;;;;;;;;5113345;28;20197;-77
2024/01/02 00:41:09;;;;;;;5.97;1.30;;;;;;;;;;5114037;28;20257;-76
2024/01/02 00:43:36;;;;;;;4.13;1.00;;;;;;;;;;5114194;28;20235;-76
2024/01/02 00:46:05;;;;;;;6.43;1.50;;;;;;;;;;5114042;28;20276;-76
2024/01/02 00:48:32;;;;;;;4.43;1.00;;;;;;;;;;5113932;28;20756;-77
2024/01/02 00:51:01;;;;;;;7.20;1.40;;;;;;;;;;5113769;28;20296;-77
2024/01/02 00:53:29;;;;;;;5.83;1.20;;;;;;;;;;5113592;28;20198;-76
2024/01/02 00:55:56;;;;;;;6.20;1.20;;;;;;;;;;5113601;28;20884;-76
2024/01/02 00:58:23;;;;;;;7.80;1.40;;;;;;;;;;5113736;28;20265;-76
2024/01/02 01:00:50;;;;;;;6.03;1.40;;;;;;;;;;5113276;28;20332;-75
2024/01/02 01:03:19;;;;;;;5.27;1.20;;;;;;;;;;5113360;28;20227;-77
2024/01/02 01:05:46;;;;;;;6.17;1.27;;;;;;;;;;5113429;28;20200;-76
2024/01/02 01:08:13;;;;;;;3.27;0.80;;;;;;;;;;5112921;28;20280;-76
2024/01/02 01:10:43;;;;;;;5.43;1.13;;;;;;;;;;5113458;28;20229;-77
2024/01/02 01:13:11;;;;;;;3.63;0.97;;;;;;;;;;5113415;28;20733;-77
2024/01/02 01:15:39;;;;;;;3.53;0.80;;;;;;;;;;5113392;28;20236;-77
2024/01/02 01:18:06;;;;;;;3.50;0.80;;;;;;;;;;5113539;28;20284;-76
2024/01/02 01:20:35;;;;;;;7.93;1.00;;;;;;;;;;5113216;28;20290;-77
2024/01/02 01:23:02;;;;;;;3.73;0.90;;;;;;;;;;5112760;28;20221;-77
2024/01/02 01:25:29;;;;;;;4.53;1.13;;;;;;;;;;5113553;28;20200;-76
2024/01/02 01:27:56;;;;;;;4.33;0.70;;;;;;;;;;5113192;28;20200;-76
2024/01/02 01:30:23;;;;;;;5.23;1.10;;;;;;;;;;5112933;28;20193;-76
2024/01/02 01:32:50;;;;;;;6.13;0.87;;;;;;;;;;5113217;28;20285;-77
2024/01/02 01:35:18;;;;;;;3.63;0.67;;;;;;;;;;5113076;28;20213;-76
2024/01/02 01:37:46;;;;;;;3.30;0.70;;;;;;;;;;5112816;28;20289;-76
2024/01/02 01:40:12;;;;;;;4.00;1.13;;;;;;;;;;5113295;28;20194;-77
2024/01/02 01:42:40;;;;;;;3.77;0.90;;;;;;;;;;5112506;28;20222;-77
2024/01/02 01:45:07;;;;;;;7.63;1.20;;;;;;;;;;5112750;28;20289;-77
2024/01/02 01:47:34;;;;;;;2.80;0.80;;;;;;;;;;5113160;28;20740;-76
2024/01/02 01:50:02;;;;;;;7.00;1.00;;;;;;;;;;5112541;28;20296;-76
2024/01/02 01:52:32;;;;;;;3.30;0.90;;;;;;;;;;5112444;28;20193;-77
2024/01/02 01:55:01;;;;;;;5.80;1.17;;;;;;;;;;5112972;28;20194;-76
2024/01/02 01:57:28;;;;;;;4.90;0.80;;;;;;;;;;5112806;28;20197;-76
2024/01/02 01:59:57;;;;;;;5.23;1.10;;;;;;;;;;5112301;28;20238;-76
2024/01/02 02:02:24;;;;;;;6.20;1.10;;;;;;;;;;5112320;28;20225;-77
2024/01/02 02:04:52;;;;;;;5.10;1.17;;;;;;;;;;5112387;28;20289;-77
2024/01/02 02:07:19;;;;;;;3.77;1.00;;;;;;;;;;5112280;28;20194;-77
2024/01/02 02:09:46;;;;;;;6.03;1.20;;;;;;;;;;5111794;28;20236;-77
2024/01/02 02:12:15;;;;;;;8.27;1.13;;;;;;;;;;5112275;28;20256;-77
2024/01/02 02:14:42;;;;;;;4.77;1.23;;;;;;;;;;5112617;28;20293;-76
2024/01/02 02:17:10;;;;;;;6.20;1.10;;;;;;;;;;5112357;28;20195;-76
2024/01/02 02:19:37;;;;;;;7.30;1.00;;;;;;;;;;5112322;28;20208;-76
2024/01/02 02:22:04;;;;;;;6.47;1.10;;;;;;;;;;5111966;28;20308;-76
2024/01/02 02:24:33;;;;;;;5.87;1.10;;;;;;;;;;5112103;28;20216;-76
2024/01/02 02:27:01;;;;;;;6.37;1.43;;;;;;;;;;5112363;28;20277;-77
2024/01/02 02:29:28;;;;;;;7.67;1.20;;;;;;;;;;5112168;28;20221;-77
2024/01/02 02:31:56;;;;;;;4.93;0.80;;;;;;;;;;5111806;28;20685;-77
2024/01/02 02:34:23;;;;;;;3.60;0.90;;;;;;;;;;5111775;28;20198;-76
2024/01/02 02:36:50;;;;;;;4.97;1.20;;;;;;;;;;5111603;28;20314;-76
2024/01/02 02:39:17;;;;;;;5.67;1.40;;;;;;;;;;5111656;28;20288;-76
2024/01/02 02:41:46;;;;;;;6.27;1.40;;;;;;;;;;5111787;28;20229;-76
2024/01/02 02:44:13;;;;;;;7.77;1.40;;;;;;;;;;5112389;28;20627;-76
2024/01/02 02:46:40;;;;;;;9.00;1.87;;;;;;;;;;5111668;28;20748;-77
2024/01/02 02:49:07;;;;;;;8.17;1.67;;;;;;;;;;5111291;28;20292;-76
2024/01/02 02:51:35;;;;;;;7.57;1.43;;;;;;;;;;5111324;28;20284;-77
2024/01/02 02:54:02;;;;;;;6.93;1.83;;;;;;;;;;5111751;28;20293;-76
2024/01/02 02:56:29;;;;;;;7.37;1.40;;;;;;;;;;5111687;28;20232;-77
2024/01/02 02:58:58;;;;;;;6.70;1.30;;;;;;;;;;5111256;28;20241;-76
2024/01/02 03:01:25;;;;;;;9.03;1.67;;;;;;;;;;5112407;28;20616;-76
2024/01/02 03:03:52;;;;;;;7.63;1.50;;;;;;;;;;5111266;28;20283;-77
2024/01/02 03:06:20;;;;;;;7.33;1.50;;;;;;;;;;5111554;28;20293;-76
2024/01/02 03:08:47;;;;;;;7.50;1.30;;;;;;;;;;5111650;28;20196;-76
2024/01/02 03:11:14;;;;;;;8.03;1.50;;;;;;;;;;5111534;28;20610;-77
2024/01/02 03:13:44;;;;;;;7.33;1.30;;;;;;;;;;5111645;28;20194;-77
2024/01/02 03:16:13;;;;;;;5.77;0.90;;;;;;;;;;5111522;28;20288;-76
2024/01/02 03:18:40;;;;;;;4.43;1.40;;;;;;;;;;5111073;28;20194;-77
2024/01/02 03:21:09;;;;;;;4.97;1.00;;;;;;;;;;5112680;28;20289;-76
2024/01/02 03:23:36;;;;;;;5.77;1.00;;;;;;;;;;5115446;28;20650;-76
2024/01/02 03:26:04;;;;;;;4.90;1.10;;;;;;;;;;5115493;28;20232;-76
2024/01/02 03:28:31;;;;;;;4.90;1.30;;;;;;;;;;5115367;28;20280;-77
2024/01/02 03:30:58;;;;;;;5.07;1.20;;;;;;;;;;5115347;28;20744;-77
2024/01/02 03:33:27;;;;;;;9.00;1.37;;;;;;;;;;5115128;28;20280;-76
2024/01/02 03:35:54;;;;;;;5.30;1.03;;;;;;;;;;5115239;28;20669;-76
2024/01/02 03:38:21;;;;;;;7.20;0.90;;;;;;;;;;5110861;28;20224;-76
2024/01/02 03:40:50;;;;;;;4.47;0.97;;;;;;;;;;5104266;28;20285;-76
2024/01/02 03:43:17;;;;;;;5.40;1.20;;;;;;;;;;5094658;28;20645;-76
2024/01/02 03:45:44;;;;;;;4.63;1.13;;;;;;;;;;5112275;28;20733;-79
2024/01/02 03:48:11;;;;;;;3.80;1.00;;;;;;;;;;5114689;28;20285;-76
2024/01/02 03:50:39;;;;;;;6.23;1.07;;;;;;;;;;5114958;28;20204;-76
2024/01/02 03:53:07;;;;;;;3.10;0.83;;;;;;;;;;5115009;28;20668;-77
2024/01/02 03:55:34;;;;;;;4.17;0.90;;;;;;;;;;5104214;28;20226;-76
2024/01/02 03:58:01;;;;;;;4.50;0.90;;;;;;;;;;5111720;28;20205;-76
2024/01/02 04:00:28;;;;;;;4.60;0.87;;;;;;;;;;5114817;28;20236;-77
2024/01/02 04:02:55;;;;;;;4.87;0.70;;;;;;;;;;5114296;28;20221;-77
2024/01/02 04:05:23;;;;;;;3.33;0.70;;;;;;;;;;5114707;28;20277;-77
2024/01/02 04:07:51;;;;;;;3.17;0.90;;;;;;;;;;5114819;28;20289;-76
2024/01/02 04:10:18;;;;;;;5.67;0.97;;;;;;;;;;5114405;28;20741;-77
2024/01/02 04:12:45;;;;;;;3.00;0.90;;;;;;;;;;5114836;28;20284;-77
2024/01/02 04:15:13;;;;;;;4.13;0.60;;;;;;;;;;5114744;28;20229;-77
2024/01/02 04:17:40;;;;;;;1.93;0.60;;;;;;;;;;5114218;28;20657;-76
2024/01/02 04:20:07;;;;;;;3.17;0.60;;;;;;;;;;5114237;28;20753;-77
2024/01/02 04:22:34;;;;;;;4.20;0.70;;;;;;;;;;5114126;28;20308;-75
2024/01/02 04:25:03;;;;;;;2.63;0.77;;;;;;;;;;5114191;28;20276;-75
2024/01/02 04:27:30;;;;;;;2.33;0.70;;;;;;;;;;5114639;28;20224;-76
2024/01/02 04:29:58;;;;;;;3.00;0.70;;;;;;;;;;5114251;28;20244;-76
2024/01/02 04:32:25;;;;;;;4.63;0.90;;;;;;;;;;5113723;28;20296;-76
2024/01/02 04:34:52;;;;;;;4.03;0.90;;;;;;;;;;5114373;28;20317;-77
2024/01/02 04:37:19;;;;;;;1.40;0.50;;;;;;;;;;5113724;28;20321;-76
2024/01/02 04:39:46;;;;;;;3.93;0.73;;;;;;;;;;5114524;28;20292;-76
2024/01/02 04:42:15;;;;;;;3.97;0.70;;;;;;;;;;5114057;28;20250;-76
2024/01/02 04:44:42;;;;;;;1.77;0.40;;;;;;;;;;5113500;28;20293;-77
2024/01/02 04:47:09;;;;;;;5.17;0.67;;;;;;;;;;5114062;28;20670;-77
2024/01/02 04:49:36;;;;;;;2.63;0.77;;;;;;;;;;5113597;28;20236;-77
2024/01/02 04:52:04;;;;;;;2.80;0.60;;;;;;;;;;5113893;28;20662;-76
2024/01/02 04:54:31;;;;;;;1.77;0.60;;;;;;;;;;5114075;28;20232;-76
2024/01/02 04:56:58;;;;;;;4.50;1.00;;;;;;;;;;5113744;28;20281;-76
2024/01/02 04:59:26;;;;;;;3.27;0.70;;;;;;;;;;5113642;28;20253;-77
2024/01/02 05:01:54;;;;;;;2.27;0.40;;;;;;;;;;5113733;28;20282;-77
2024/01/02 05:04:21;;;;;;;2.97;0.50;;;;;;;;;;5113382;28;20272;-77
2024/01/02 05:06:48;;;;;;;3.23;0.77;;;;;;;;;;5113654;28;20666;-77
2024/01/02 05:09:15;;;;;;;2.63;0.40;;;;;;;;;;5113405;28;20288;-77
2024/01/02 05:11:42;;;;;;;2.63;0.57;;;;;;;;;;5114084;28;20197;-76
2024/01/02 05:14:09;;;;;;;1.90;0.50;;;;;;;;;;5113104;28;20217;-77
2024/01/02 05:16:38;;;;;;;2.50;0.80;;;;;;;;;;5113588;28;20232;-78
2024/01/02 05:19:05;;;;;;;2.27;0.70;;;;;;;;;;5112688;28;20654;-79
2024/01/02 05:21:33;;;;;;;2.97;0.90;;;;;;;;;;5113731;28;20200;-77
2024/01/02 05:24:00;;;;;;;3.10;0.90;;;;;;;;;;5113409;28;20316;-77
2024/01/02 05:26:27;;;;;;;5.57;1.00;;;;;;;;;;5113352;28;20304;-79
2024/01/02 05:28:54;;;;;;;4.53;0.73;;;;;;;;;;5113081;28;20190;-77
2024/01/02 05:31:21;;;;;;;2.97;0.70;;;;;;;;;;5113121;28;20297;-77
2024/01/02 05:33:50;;;;;;;1.93;0.53;;;;;;;;;;5112749;28;20285;-76
2024/01/02 05:36:17;;;;;;;2.20;0.70;;;;;;;;;;5113284;28;20289;-78
2024/01/02 05:38:44;;;;;;;2.03;0.50;;;;;;;;;;5113093;28;20224;-79
2024/01/02 05:41:11;;;;;;;2.10;0.60;;;;;;;;;;5113042;28;20235;-79
2024/01/02 05:43:39;;;;;;;2.83;0.77;;;;;;;;;;5112125;28;20317;-80
2024/01/02 05:46:06;;;;;;;3.47;1.13;;;;;;;;;;5112729;28;20225;-78
2024/01/02 05:48:33;;;;;;;4.87;1.43;;;;;;;;;;5112833;28;20736;-78
2024/01/02 05:51:01;;;;;;;3.03;0.50;;;;;;;;;;5112802;28;20281;-77
2024/01/02 05:53:29;;;;;;;3.80;0.63;;;;;;;;;;5112921;28;20932;-76
2024/01/02 05:55:56;;;;;;;2.37;0.90;;;;;;;;;;5113265;28;20193;-79
2024/01/02 05:58:23;;;;;;;4.33;0.90;;;;;;;;;;5112440;28;20229;-79
2024/01/02 06:00:50;;;;;;;2.43;0.70;;;;;;;;;;5112251;28;20225;-80
2024/01/02 06:03:17;;;;;;;4.60;0.90;;;;;;;;;;5112322;28;20312;-79
2024/01/02 06:05:45;;;;;;;4.73;1.00;;;;;;;;;;5112433;28;20189;-79
2024/01/02 06:08:15;;;;;;;4.67;1.10;;;;;;;;;;5112545;28;20281;-79
2024/01/02 06:10:42;;;;;;;5.00;1.70;;;;;;;;;;5112854;28;20289;-79
2024/01/02 06:13:09;;;;;;;4.27;1.73;;;;;;;;;;5111915;28;20197;-79
2024/01/02 06:15:36;;;;;;;4.00;1.30;;;;;;;;;;5112413;28;20284;-79
2024/01/02 06:18:03;;;;;;;4.50;1.40;;;;;;;;;;5112462;28;20305;-79
2024/01/02 06:20:31;;;;;;;7.20;1.67;;;;;;;;;;5112289;28;20293;-79
2024/01/02 06:22:58;;;;;;;5.93;1.27;;;;;;;;;;5112386;28;20224;-79
2024/01/02 06:25:26;;;;;;;6.17;1.87;;;;;;;;;;5112175;28;20730;-79
2024/01/02 06:27:53;;;;;;;6.60;1.30;;;;;;;;;;5112180;28;20285;-79
2024/01/02 06:30:22;;;;;;;4.90;1.17;;;;;;;;;;5112143;28;20281;-80
2024/01/02 06:32:49;;;;;;;4.40;1.23;;;;;;;;;;5112215;28;20198;-79
2024/01/02 06:35:16;;;;;;;3.77;1.00;;;;;;;;;;5111979;28;20217;-78
2024/01/02 06:37:43;;;;;;;6.00;1.53;;;;;;;;;;5112002;28;20288;-79
2024/01/02 06:40:11;;;;;;;5.73;1.00;;;;;;;;;;5111975;28;20641;-79
2024/01/02 06:42:40;;;;;;;4.83;1.10;;;;;;;;;;5111855;28;20286;-80
2024/01/02 06:45:08;;;;;;;5.53;0.90;;;;;;;;;;5111677;28;20200;-80
2024/01/02 06:47:35;;;;;;;2.50;0.70;;;;;;;;;;5112186;28;20200;-79
2024/01/02 06:50:03;;;;;;;5.70;0.83;;;;;;;;;;5111617;28;20861;-79
2024/01/02 06:52:30;;;;;;;5.87;1.10;;;;;;;;;;5112449;28;20194;-79
2024/01/02 06:54:57;;;;;;;5.33;0.90;;;;;;;;;;5111320;28;20221;-79
2024/01/02 06:57:25;;;;;;;5.47;0.80;;;;;;;;;;5112050;28;20688;-80
2024/01/02 06:59:53;;;;;;;4.20;0.87;;;;;;;;;;5111513;28;20740;-79
2024/01/02 07:02:20;;;;;;;3.77;0.80;;;;;;;;;;5111634;28;20293;-79
2024/01/02 07:04:48;;;;;;;6.60;1.27;;;;;;;;;;5111690;28;20312;-79
2024/01/02 07:07:15;;;;;;;3.70;0.97;;;;;;;;;;5112252;28;20198;-78
2024/01/02 07:09:42;;;;;;;6.70;1.10;;;;;;;;;;5111224;28;20254;-79
2024/01/02 07:12:09;;;;;;;6.07;1.20;;;;;;;;;;5111839;28;20317;-78
2024/01/02 07:14:37;;;;;;;6.63;1.40;;;;;;;;;;5111519;28;20289;-79
2024/01/02 07:17:07;;;;;;;3.80;1.07;;;;;;;;;;5111558;28;20197;-79
2024/01/02 07:19:34;;;;;;;4.40;1.43;;;;;;;;;;5112348;28;20201;-79
2024/01/02 07:22:02;;;;;;;5.13;1.00;;;;;;;;;;5111672;28;20194;-79
2024/01/02 07:24:31;;;;;;;3.40;0.77;;;;;;;;;;5111180;28;20225;-79
2024/01/02 07:26:58;;;;;;;4.50;0.90;;;;;;;;;;5111467;28;20198;-79
2024/01/02 07:29:26;;;;;;;4.33;0.80;;;;;;;;;;5111275;28;20229;-79
2024/01/02 07:31:53;;;;;;;5.50;1.00;;;;;;;;;;5111557;28;20288;-79
2024/01/02 07:34:22;;;;;;;6.77;1.00;;;;;;;;;;5111745;28;20194;-80
2024/01/02 07:36:49;;;;;;;7.70;1.20;;;;;;;;;;5111645;28;20289;-76
2024/01/02 07:39:17;;;;;;;6.70;1.10;;;;;;;;;;5111138;28;20214;-79
2024/01/02 07:41:44;;;;;;;3.93;1.10;;;;;;;;;;5111361;28;20288;-79
2024/01/02 07:44:11;;;;;;;6.13;1.30;;;;;;;;;;5111360;28;20233;-80
2024/01/02 07:46:38;;;;;;;6.97;1.70;;;;;;;;;;5111395;28;20201;-80
2024/01/02 07:49:06;;;;;;;6.07;1.27;;;;;;;;;;5111583;28;20228;-78
2024/01/02 07:51:34;;;;;;;6.67;1.57;;;;;;;;;;5111084;28;20218;-79
2024/01/02 07:54:02;;;;;;;5.47;1.37;;;;;;;;;;5110939;28;20284;-79
2024/01/02 07:56:30;;;;;;;5.80;1.90;;;;;;;;;;5111637;28;20338;-80
2024/01/02 07:58:57;;;;;;;7.33;1.60;;;;;;;;;;5111389;28;20194;-78
2024/01/02 08:01:24;;;;;;;7.60;1.70;;;;;;;;;;5111445;28;20281;-79
2024/01/02 08:03:52;;;;;;;8.83;1.67;;;;;;;;;;5111300;28;20332;-78
2024/01/02 08:06:19;;;;;;;5.80;1.20;;;;;;;;;;5111206;28;20204;-78
2024/01/02 08:08:47;;;;;;;7.30;1.47;;;;;;;;;;5114236;28;20288;-79
2024/01/02 08:11:14;;;;;;;8.03;1.50;;;;;;;;;;5115098;28;20206;-79
2024/01/02 08:13:42;;;;;;;6.30;1.37;;;;;;;;;;5114429;28;20307;-79
2024/01/02 08:16:09;;;;;;;8.97;1.40;;;;;;;;;;5114846;28;20194;-79
2024/01/02 08:18:41;;;;;;;7.50;1.70;;;;;;;;;;5114922;28;20218;-78
2024/01/02 08:21:08;;;;;;;5.53;1.60;;;;;;;;;;5114671;28;20609;-79
2024/01/02 08:23:36;;;;;;;7.50;1.63;;;;;;;;;;5114555;28;20328;-79
2024/01/02 08:26:04;;;;;;;5.00;1.30;;;;;;;;;;5114865;28;20198;-78
2024/01/02 08:28:31;;;;;;;6.70;1.77;;;;;;;;;;5114148;28;20741;-79
2024/01/02 08:30:58;;;;;;;5.30;1.50;;;;;;;;;;5114798;28;20207;-78
2024/01/02 08:33:26;;;;;;;6.70;1.37;;;;;;;;;;5114458;28;20240;-79
2024/01/02 08:35:53;;;;;;;5.63;1.33;;;;;;;;;;5114205;28;20193;-79
2024/01/02 08:38:21;;;;;;;7.27;1.90;;;;;;;;;;5114364;28;20277;-78
2024/01/02 08:40:48;;;;;;;6.80;1.70;;;;;;;;;;5113934;28;20201;-79
2024/01/02 08:43:17;;;;;;;7.17;1.40;;;;;;;;;;5113995;28;20288;-79
2024/01/02 08:45:44;;;;;;;5.60;1.30;;;;;;;;;;5114295;28;20225;-79
2024/01/02 08:48:12;;;;;;;6.33;1.07;;;;;;;;;;5114259;28;20277;-79
2024/01/02 08:50:41;;;;;;;9.50;1.50;;;;;;;;;;5114221;28;20198;-78
2024/01/02 08:53:09;;;;;;;3.93;1.37;;;;;;;;;;5113699;28;20202;-79
2024/01/02 08:55:36;;;;;;;9.33;1.67;;;;;;;;;;5113461;28;20243;-78
2024/01/02 08:58:04;;;;;;;7.33;1.50;;;;;;;;;;5114015;28;20194;-79
2024/01/02 09:00:33;;;;;;;9.10;2.00;;;;;;;;;;5113565;28;20231;-79
2024/01/02 09:03:01;;;;;;;7.50;1.50;;;;;;;;;;5113963;28;20746;-78
2024/01/02 09:05:28;;;;;;;7.20;1.80;;;;;;;;;;5113122;28;20260;-79
2024/01/02 09:07:55;;;;;;;6.03;1.73;;;;;;;;;;5113584;28;20297;-79
2024/01/02 09:10:23;;;;;;;9.20;2.20;;;;;;;;;;5113325;28;20198;-79
2024/01/02 09:12:50;;;;;;;8.47;1.90;;;;;;;;;;5114077;28;20280;-79
2024/01/02 09:15:17;;;;;;;10.17;1.60;;;;;;;;;;5113619;28;20293;-79
2024/01/02 09:17:46;;;;;;;8.23;1.80;;;;;;;;;;5113805;28;20284;-79
2024/01/02 09:20:13;;;;;;;7.30;1.63;;;;;;;;;;5112966;28;20569;-79
2024/01/02 09:22:40;;;;;;;6.70;1.40;;;;;;;;;;5112895;28;20296;-79
2024/01/02 09:25:09;;;;;;;7.70;1.67;;;;;;;;;;5113164;28;20257;-79
2024/01/02 09:27:37;;;;;;;5.70;1.30;;;;;;;;;;5113660;28;20194;-79
2024/01/02 09:30:05;;;;;;;4.80;1.30;;;;;;;;;;5113369;28;20240;-79
2024/01/02 09:32:32;;;;;;;5.43;1.03;;;;;;;;;;5113571;28;20572;-78
2024/01/02 09:35:02;;;;;;;4.77;1.17;;;;;;;;;;5112862;28;20198;-79
2024/01/02 09:37:29;;;;;;;5.60;1.03;;;;;;;;;;5112933;28;20205;-79
2024/01/02 09:39:56;;;;;;;5.20;1.10;;;;;;;;;;5112682;28;20321;-79
2024/01/02 09:42:35;;;;;;;5.80;1.13;;;;;;;;;;5113394;28;20232;-79
2024/01/02 09:45:04;;;;;;;5.37;1.40;;;;;;;;;;5112768;28;20285;-79
2024/01/02 09:47:41;;;;;;;3.80;1.00;;;;;;;;;;5112917;28;20205;-79
2024/01/02 09:50:10;;;;;;;2.97;0.90;;;;;;;;;;5112317;28;20194;-79
2024/01/02 09:52:45;;;;;;;4.23;1.37;;;;;;;;;;5113243;28;20247;-79
2024/01/02 09:55:18;;;;;;;4.43;1.40;;;;;;;;;;5112534;28;20571;-79
2024/01/02 09:57:48;;;;;;;5.17;1.20;;;;;;;;;;5112616;28;20239;-79
2024/01/02 10:00:22;;;;;;;5.50;1.40;;;;;;;;;;5111700;28;20312;-79
2024/01/02 10:02:57;;;;;;;4.80;1.30;;;;;;;;;;5112710;28;20208;-78
2024/01/02 10:05:31;;;;;;;5.67;1.20;;;;;;;;;;5111880;28;20328;-79
2024/01/02 10:08:08;;;;;;;5.27;1.80;;;;;;;;;;5112482;28;20752;-78
2024/01/02 10:10:36;;;;;;;4.43;1.23;;;;;;;;;;5112511;28;20643;-79
2024/01/02 10:13:15;;;;;;;4.67;1.37;;;;;;;;;;5112487;28;20208;-79
2024/01/02 10:15:49;;;;;;;6.23;1.77;;;;;;;;;;5112343;28;20741;-78
2024/01/02 10:18:24;;;;;;;7.97;1.43;;;;;;;;;;5111917;28;20717;-79
2024/01/02 10:20:55;;;;;;;3.87;1.33;;;;;;;;;;5112302;28;20276;-79
2024/01/02 10:23:30;;;;;;;5.90;1.50;;;;;;;;;;5112352;28;20190;-81
2024/01/02 10:26:00;;;;;;;6.00;1.43;;;;;;;;;;5112245;28;20221;-80
2024/01/02 10:28:28;;;;;;;6.50;1.40;;;;;;;;;;5111929;28;20200;-79
2024/01/02 10:31:00;;;;;;;6.77;1.73;;;;;;;;;;5111382;28;20204;-79
2024/01/02 10:33:32;;;;;;;4.03;1.40;;;;;;;;;;5112402;28;20277;-78
2024/01/02 10:36:02;;;;;;;3.40;1.20;;;;;;;;;;5111984;28;20204;-79
2024/01/02 10:38:34;;;;;;;5.33;1.13;;;;;;;;;;5111911;28;20292;-78
2024/01/02 10:41:06;;;;;;;4.73;1.00;;;;;;;;;;5111995;28;20194;-78
2024/01/02 10:43:37;;;;;;;3.00;1.03;;;;;;;;;;5112669;28;20221;-79
2024/01/02 10:46:07;;;;;;;4.43;1.43;;;;;;;;;;5111565;28;20697;-79
2024/01/02 10:48:39;;;;;;;4.53;1.30;;;;;;;;;;5111522;28;20240;-79
2024/01/02 10:51:09;;;;;;;4.63;1.13;;;;;;;;;;5112127;28;20193;-79
2024/01/02 10:53:46;;;;;;;5.63;1.43;;;;;;;;;;5111515;28;20588;-79
2024/01/02 10:56:14;;;;;;;5.23;0.87;;;;;;;;;;5111762;28;20204;-79
2024/01/02 10:58:46;;;;;;;5.80;1.43;;;;;;;;;;5110876;28;20284;-78
2024/01/02 11:01:16;;;;;;;4.70;1.30;;;;;;;;;;5111759;28;20255;-78
2024/01/02 11:03:48;;;;;;;4.87;1.83;;;;;;;;;;5111066;28;20197;-79
2024/01/02 11:06:20;;;;;;;7.90;2.00;;;;;;;;;;5111218;28;20210;-79
2024/01/02 11:08:52;;;;;;;8.83;1.90;;;;;;;;;;5111676;28;20273;-79
2024/01/02 11:11:20;;;;;;;8.83;1.90;;;;;;;;;;5111470;28;20201;-79
2024/01/02 11:13:48;;;;;;;9.20;2.33;;;;;;;;;;5111860;28;20642;-79
2024/01/02 11:16:17;;;;;;;16.07;2.80;;;;;;;;;;5110989;28;20343;-78
2024/01/02 11:18:46;;;;;;;10.37;2.73;;;;;;;;;;5111038;28;20197;-79
2024/01/02 11:21:17;;;;;;;13.47;2.80;;;;;;;;;;5111313;28;20197;-79
2024/01/02 11:23:49;;;;;;;11.87;2.40;;;;;;;;;;5111408;28;20760;-79
2024/01/02 11:26:17;;;;;;;11.17;2.70;;;;;;;;;;5111396;28;20786;-79
2024/01/02 11:28:47;;;;;;;9.80;2.70;;;;;;;;;;5111436;28;20193;-79
2024/01/02 11:31:14;;;;;;;12.30;2.50;;;;;;;;;;5110567;28;20272;-79
2024/01/02 11:33:46;;;;;;;11.87;2.30;;;;;;;;;;5111510;28;20761;-79
2024/01/02 11:36:21;;;;;;;11.83;2.57;;;;;;;;;;5111321;28;20212;-79
2024/01/02 11:39:02;;;;;;;8.97;2.00;;;;;;;;;;5111396;28;20228;-79
2024/01/02 11:41:34;;;;;;;10.53;2.20;;;;;;;;;;5111414;28;20194;-80
2024/01/02 11:44:08;;;;;;;9.63;2.40;;;;;;;;;;5115355;28;20194;-80
2024/01/02 11:46:37;;;;;;;11.17;2.53;;;;;;;;;;5114715;28;20198;-79
2024/01/02 11:49:10;;;;;;;9.70;2.27;;;;;;;;;;5115001;28;20677;-80
2024/01/02 11:51:40;;;;;;;14.57;3.10;;;;;;;;;;5114986;28;20228;-78
2024/01/02 11:54:16;;;;;;;12.40;2.67;;;;;;;;;;5115440;28;20646;-78
2024/01/02 11:56:43;;;;;;;9.90;2.57;;;;;;;;;;5115308;28;20292;-79
2024/01/02 11:59:19;;;;;;;13.80;2.70;;;;;;;;;;5114731;28;20316;-79
2024/01/02 12:01:51;;;;;;;11.23;2.23;;;;;;;;;;5114538;28;20291;-79
2024/01/02 12:04:23;;;;;;;11.87;2.50;;;;;;;;;;5115250;28;20190;-79
2024/01/02 12:06:53;;;;;;;12.80;2.90;;;;;;;;;;5114826;28;20197;-78
2024/01/02 12:09:22;;;;;;;19.30;3.03;;;;;;;;;;5114918;28;20247;-77
2024/01/02 12:11:53;;;;;;;14.03;2.87;;;;;;;;;;5114820;28;20204;-78
2024/01/02 12:14:28;;;;;;;10.47;2.53;;;;;;;;;;5114433;28;20197;-79
2024/01/02 12:16:55;;;;;;;15.00;2.60;;;;;;;;;;5114704;28;20204;-78
2024/01/02 12:19:23;;;;;;;16.50;2.67;;;;;;;;;;5114909;28;20292;-79
2024/01/02 12:21:52;;;;;;;9.70;2.53;;;;;;;;;;5114509;28;20200;-79
2024/01/02 12:24:19;;;;;;;13.40;2.60;;;;;;;;;;5114396;28;20200;-79
2024/01/02 12:26:48;;;;;;;8.60;2.40;;;;;;;;;;5114564;28;20284;-80
2024/01/02 12:29:19;;;;;;;15.17;3.03;;;;;;;;;;5102515;28;20578;-79
2024/01/02 12:31:50;;;;;;;13.47;2.73;;;;;;;;;;5095480;28;20297;-79
2024/01/02 12:34:21;;;;;;;11.13;2.90;;;;;;;;;;5093397;28;20210;-79
2024/01/02 12:36:54;;;;;;;11.53;2.20;;;;;;;;;;5107474;28;20729;-79
2024/01/02 12:39:21;;;;;;;9.30;2.33;;;;;;;;;;5095874;28;20301;-78
2024/01/02 12:41:53;;;;;;;8.23;2.30;;;;;;;;;;5093724;28;20194;-78
2024/01/02 12:44:22;;;;;;;14.13;3.13;;;;;;;;;;5093346;28;20221;-79
2024/01/02 12:46:50;;;;;;;12.90;3.30;;;;;;;;;;5101238;28;20189;-76
2024/01/02 12:49:19;;;;;;;11.27;2.50;;;;;;;;;;5101855;28;20209;-77
2024/01/02 12:51:47;;;;;;;9.03;2.80;;;;;;;;;;5113815;28;20198;-79
2024/01/02 12:54:16;;;;;;;6.77;2.03;;;;;;;;;;5113647;28;20200;-77
2024/01/02 12:56:44;;;;;;;6.10;2.10;;;;;;;;;;5113887;28;20284;-78
2024/01/02 12:59:14;;;;;;;11.30;2.30;;;;;;;;;;5113339;28;20229;-77
2024/01/02 13:01:42;;;;;;;11.23;2.50;;;;;;;;;;5098313;27;20422;-77
2024/01/02 13:04:14;;;;;;;10.37;2.37;;;;;;;;;;5113641;28;20236;-77
2024/01/02 13:06:42;;;;;;;6.40;1.70;;;;;;;;;;5113826;28;20230;-77
2024/01/02 13:09:11;;;;;;;7.27;1.60;;;;;;;;;;5112230;28;20198;-78
2024/01/02 13:11:39;;;;;;;6.77;1.50;;;;;;;;;;5110066;28;20284;-77
2024/01/02 13:14:06;;;;;;;6.47;1.50;;;;;;;;;;5111510;28;20200;-77
2024/01/02 13:16:35;;;;;;;5.87;1.30;;;;;;;;;;5112164;28;20628;-76
2024/01/02 13:19:03;;;;;;;5.27;1.27;;;;;;;;;;5118975;27;20205;-77
2024/01/02 13:21:30;;;;;;;3.87;1.50;;;;;;;;;;5133506;27;20193;-77
2024/01/02 13:23:58;;;;;;;4.60;1.00;;;;;;;;;;5133470;27;20213;-77
2024/01/02 13:26:26;;;;;;;4.20;1.40;;;;;;;;;;5133499;27;20256;-77
2024/01/02 13:28:55;;;;;;;7.43;2.03;;;;;;;;;;5098449;27;20636;-76
2024/01/02 13:31:30;;;;;;;5.23;1.40;;;;;;;;;;5110228;27;20202;-77
2024/01/02 13:33:58;;;;;;;4.23;1.90;;;;;;;;;;5133945;27;20639;-77
2024/01/02 13:36:25;;;;;;;6.03;1.37;;;;;;;;;;5119139;27;20732;-78
2024/01/02 13:38:53;;;;;;;7.23;1.70;;;;;;;;;;5113230;28;20229;-78
2024/01/02 13:41:22;;;;;;;10.23;2.00;;;;;;;;;;5114719;27;20250;-78
2024/01/02 13:43:49;;;;;;;8.73;1.80;;;;;;;;;;5115278;27;20230;-77
2024/01/02 13:46:18;;;;;;;9.17;2.00;;;;;;;;;;5108099;27;20304;-78
2024/01/02 13:48:52;;;;;;;7.27;1.70;;;;;;;;;;5130340;27;20204;-78
2024/01/02 13:51:22;;;;;;;6.73;1.80;;;;;;;;;;5120020;27;20197;-78
2024/01/02 13:54:07;;;;;;;7.67;1.50;;;;;;;;;;5117529;27;20200;-77
2024/01/02 13:56:35;;;;;;;6.37;1.70;;;;;;;;;;5132947;27;20193;-77
2024/01/02 13:59:04;;;;;;;6.73;1.67;;;;;;;;;;5133297;27;20296;-76
2024/01/02 14:01:34;;;;;;;8.53;1.83;;;;;;;;;;5131080;27;20203;-78
2024/01/02 14:04:05;;;;;;;7.63;2.20;;;;;;;;;;5112861;28;20229;-77
2024/01/02 14:06:35;;;;;;;5.57;1.77;;;;;;;;;;5111546;28;20213;-78
2024/01/02 14:09:14;;;;;;;10.63;2.30;;;;;;;;;;5112652;28;20284;-77
2024/01/02 14:11:55;;;;;;;9.80;2.30;;;;;;;;;;5132258;27;20700;-77
2024/01/02 14:14:26;;;;;;;9.97;2.10;;;;;;;;;;5133099;27;20291;-77
2024/01/02 14:16:54;;;;;;;11.30;2.20;;;;;;;;;;5124498;27;20654;-77
2024/01/02 14:19:22;;;;;;;12.00;3.50;;;;;;;;;;5110844;28;20296;-78
2024/01/02 14:21:52;;;;;;;12.50;3.10;;;;;;;;;;5112226;28;20289;-78
2024/01/02 14:24:24;;;;;;;11.95;2.70;;;;;;;;;;5111761;28;20190;-77
2024/01/02 14:26:57;;;;;;;14.35;3.10;;;;;;;;;;5112353;27;20286;-78
2024/01/02 14:29:28;;;;;;;15.27;3.03;;;;;;;;;;5108462;28;20606;-78
2024/01/02 14:32:00;;;;;;;15.13;2.85;;;;;;;;;;5110223;28;20820;-77
2024/01/02 14:34:41;;;;;;;12.85;2.60;;;;;;;;;;5109546;27;20198;-78
2024/01/02 14:37:15;;;;;;;17.45;3.08;;;;;;;;;;5105095;28;20293;-78
2024/01/02 14:39:51;;;;;;;14.40;3.75;;;;;;;;;;5109976;28;20273;-77
2024/01/02 14:42:35;;;;;;;17.75;4.32;;;;;;;;;;5108321;28;20201;-77
2024/01/02 14:45:04;;;;;;;13.73;3.10;;;;;;;;;;5109805;27;20205;-80
2024/01/02 14:47:33;;;;;;;15.60;3.70;;;;;;;;;;5100396;28;20221;-80
2024/01/02 14:50:02;;;;;;;15.20;3.53;;;;;;;;;;5102452;28;20202;-79